createdAt,value
2022-10-05T00:01:42.852Z,10.20
2022-10-05T00:04:22.547Z,10.10
2022-10-05T00:07:08.388Z,10.00
2022-10-05T00:09:36.681Z,10.00
2022-10-05T00:12:21.776Z,10.00
2022-10-05T00:14:52.414Z,10.10
2022-10-05T00:17:25.856Z,10.10
2022-10-05T00:20:03.482Z,10.10
2022-10-05T00:22:52.255Z,10.10
2022-10-05T00:25:30.721Z,10.00
2022-10-05T00:28:02.202Z,9.90
2022-10-05T00:30:35.986Z,9.80
2022-10-05T00:33:05.271Z,9.80
2022-10-05T00:35:39.418Z,9.80
2022-10-05T00:38:15.491Z,9.70
2022-10-05T00:40:58.671Z,9.70
2022-10-05T00:44:16.087Z,9.80
2022-10-05T00:47:04.599Z,9.80
2022-10-05T00:50:06.155Z,9.60
2022-10-05T00:52:55.256Z,9.40
2022-10-05T00:55:56.857Z,9.30
2022-10-05T00:58:48.396Z,9.20
2022-10-05T01:01:58.921Z,9.20
2022-10-05T01:04:57.777Z,9.00
2022-10-05T01:07:47.778Z,8.90
2022-10-05T01:11:12.697Z,8.60
2022-10-05T01:13:49.040Z,8.50
2022-10-05T01:16:41.933Z,8.40
2022-10-05T01:19:54.498Z,8.40
2022-10-05T01:22:59.831Z,8.50
2022-10-05T01:25:48.611Z,8.60
2022-10-05T01:29:06.995Z,8.70
2022-10-05T01:31:52.577Z,8.70
2022-10-05T01:34:51.147Z,8.80
2022-10-05T01:37:24.214Z,8.80
2022-10-05T01:40:09.325Z,8.90
2022-10-05T01:42:42.181Z,8.90
2022-10-05T01:45:19.265Z,8.90
2022-10-05T01:47:54.059Z,8.90
2022-10-05T01:50:27.139Z,8.80
2022-10-05T01:53:19.748Z,8.90
2022-10-05T01:56:06.271Z,8.90
2022-10-05T01:58:43.480Z,8.90
2022-10-05T02:01:25.613Z,8.80
2022-10-05T02:04:37.290Z,8.60
2022-10-05T02:07:14.014Z,8.40
2022-10-05T02:09:55.670Z,8.40
2022-10-05T02:12:25.416Z,8.40
2022-10-05T02:14:58.935Z,8.40
2022-10-05T02:17:38.865Z,8.40
2022-10-05T02:20:11.734Z,8.40
2022-10-05T02:22:45.165Z,8.50
2022-10-05T02:25:27.590Z,8.50
2022-10-05T02:28:15.533Z,8.40
2022-10-05T02:30:54.389Z,8.30
2022-10-05T02:33:30.096Z,8.20
2022-10-05T02:36:14.841Z,8.20
2022-10-05T02:38:59.735Z,8.30
2022-10-05T02:41:32.880Z,8.10
2022-10-05T02:44:21.635Z,8.00
2022-10-05T02:47:21.477Z,8.00
2022-10-05T02:50:20.190Z,8.00
2022-10-05T02:53:06.145Z,8.10
2022-10-05T02:55:42.616Z,8.10
2022-10-05T02:58:16.814Z,7.90
2022-10-05T03:01:11.989Z,7.90
2022-10-05T03:04:16.560Z,7.90
2022-10-05T03:07:06.701Z,7.90
2022-10-05T03:09:42.354Z,8.00
2022-10-05T03:12:44.710Z,7.90
2022-10-05T03:15:42.402Z,7.90
2022-10-05T03:18:28.548Z,7.90
2022-10-05T03:21:15.280Z,7.70
2022-10-05T03:24:03.813Z,7.50
2022-10-05T03:26:43.095Z,7.40
2022-10-05T03:29:19.465Z,7.50
2022-10-05T03:32:13.085Z,7.70
2022-10-05T03:34:54.236Z,7.70
2022-10-05T03:37:29.515Z,7.80
2022-10-05T03:40:29.720Z,7.90
2022-10-05T03:43:38.046Z,7.80
2022-10-05T03:46:14.149Z,7.70
2022-10-05T03:49:25.646Z,7.60
2022-10-05T03:52:09.355Z,7.40
2022-10-05T03:54:45.296Z,7.30
2022-10-05T03:57:19.682Z,7.30
2022-10-05T04:00:14.194Z,7.20
2022-10-05T04:02:49.988Z,7.40
2022-10-05T04:05:58.827Z,7.50
2022-10-05T04:08:32.854Z,7.50
2022-10-05T04:11:10.014Z,7.50
2022-10-05T04:13:52.192Z,7.60
2022-10-05T04:16:40.654Z,7.60
2022-10-05T04:19:21.935Z,7.40
2022-10-05T04:21:56.334Z,7.40
2022-10-05T04:24:32.915Z,7.50
2022-10-05T04:27:10.861Z,7.50
2022-10-05T04:30:05.381Z,7.40
2022-10-05T04:32:48.816Z,7.40
2022-10-05T04:35:40.286Z,7.40
2022-10-05T04:38:26.136Z,7.20
2022-10-05T04:40:58.941Z,7.10
2022-10-05T04:43:34.815Z,7.10
2022-10-05T04:46:37.079Z,7.10
2022-10-05T04:49:28.827Z,7.10
2022-10-05T04:52:06.676Z,7.00
2022-10-05T04:54:39.769Z,7.00
2022-10-05T04:57:23.852Z,6.90
2022-10-05T05:00:02.988Z,6.90
2022-10-05T05:03:00.697Z,6.90
2022-10-05T05:08:41.881Z,7.00
2022-10-05T05:11:44.200Z,7.10
2022-10-05T05:14:31.095Z,7.20
2022-10-05T05:17:32.401Z,7.30
2022-10-05T05:20:18.591Z,7.40
2022-10-05T05:23:14.816Z,7.60
2022-10-05T05:26:09.525Z,7.90
2022-10-05T05:28:41.840Z,7.90
2022-10-05T05:31:27.394Z,7.90
2022-10-05T05:34:05.415Z,7.90
2022-10-05T05:36:49.656Z,8.20
2022-10-05T05:39:32.607Z,8.40
2022-10-05T05:42:01.663Z,8.60
2022-10-05T05:44:38.597Z,8.90
2022-10-05T05:47:22.135Z,9.00
2022-10-05T05:50:06.956Z,9.30
2022-10-05T05:53:18.050Z,9.40
2022-10-05T05:56:00.779Z,9.60
2022-10-05T05:58:56.458Z,9.70
2022-10-05T06:01:46.161Z,9.70
2022-10-05T06:04:22.686Z,9.50
2022-10-05T06:06:53.626Z,9.60
2022-10-05T06:09:39.496Z,9.70
2022-10-05T06:12:09.080Z,9.90
2022-10-05T06:14:50.270Z,9.90
2022-10-05T06:17:27.336Z,10.00
2022-10-05T06:20:02.511Z,10.10
2022-10-05T06:22:41.058Z,10.10
2022-10-05T06:25:17.175Z,10.20
2022-10-05T06:28:13.074Z,10.30
2022-10-05T06:31:21.005Z,10.40
2022-10-05T06:34:14.870Z,10.40
2022-10-05T06:36:51.340Z,10.40
2022-10-05T06:39:55.449Z,10.50
2022-10-05T06:42:41.521Z,10.60
2022-10-05T06:45:29.544Z,10.70
2022-10-05T06:48:35.187Z,10.80
2022-10-05T06:51:19.892Z,10.90
2022-10-05T06:54:04.224Z,11.10
2022-10-05T06:56:54.186Z,11.20
2022-10-05T06:59:29.407Z,11.30
2022-10-05T07:02:12.087Z,11.50
2022-10-05T07:04:59.285Z,11.80
2022-10-05T07:07:38.311Z,12.00
2022-10-05T07:10:27.295Z,12.20
2022-10-05T07:13:07.672Z,12.40
2022-10-05T07:16:16.018Z,12.60
2022-10-05T07:18:55.488Z,12.80
2022-10-05T07:21:36.046Z,12.90
2022-10-05T07:24:24.076Z,13.20
2022-10-05T07:27:19.236Z,13.30
2022-10-05T07:29:50.235Z,13.70
2022-10-05T07:32:50.641Z,13.90
2022-10-05T07:35:43.893Z,14.20
2022-10-05T07:38:35.868Z,14.90
2022-10-05T07:41:07.750Z,15.90
2022-10-05T07:44:05.778Z,17.30
2022-10-05T07:46:58.737Z,18.40
2022-10-05T07:49:52.511Z,19.60
2022-10-05T07:52:32.330Z,20.60
2022-10-05T07:55:37.576Z,21.00
2022-10-05T07:58:28.795Z,21.10
2022-10-05T08:01:38.210Z,21.00
2022-10-05T08:04:41.795Z,20.30
2022-10-05T08:07:29.449Z,19.80
2022-10-05T08:10:21.095Z,19.10
2022-10-05T08:13:39.430Z,18.90
2022-10-05T08:16:13.391Z,18.70
2022-10-05T08:19:03.651Z,19.30
2022-10-05T08:21:48.184Z,19.80
2022-10-05T08:25:00.703Z,20.00
2022-10-05T08:27:49.294Z,19.70
2022-10-05T08:30:18.019Z,19.50
2022-10-05T08:33:10.014Z,19.00
2022-10-05T08:35:51.665Z,19.20
2022-10-05T08:38:26.037Z,18.80
2022-10-05T08:41:32.571Z,18.80
2022-10-05T08:44:55.951Z,18.90
2022-10-05T08:47:47.342Z,18.30
2022-10-05T08:50:48.676Z,18.50
2022-10-05T08:53:53.157Z,18.20
2022-10-05T08:56:53.301Z,18.50
2022-10-05T08:59:41.775Z,18.60
2022-10-05T09:02:38.457Z,18.70
2022-10-05T09:05:28.282Z,18.70
2022-10-05T09:08:52.296Z,18.50
2022-10-05T09:11:59.410Z,18.70
2022-10-05T09:15:26.798Z,18.80
2022-10-05T09:18:43.629Z,18.60
2022-10-05T09:22:09.486Z,18.90
2022-10-05T09:25:01.345Z,18.60
2022-10-05T09:27:39.854Z,18.90
2022-10-05T09:30:33.804Z,19.10
2022-10-05T09:33:29.881Z,18.90
2022-10-05T09:36:39.456Z,18.90
2022-10-05T09:39:45.378Z,19.00
2022-10-05T09:42:39.516Z,18.70
2022-10-05T09:45:48.000Z,18.90
2022-10-05T09:48:52.835Z,19.10
2022-10-05T09:51:39.036Z,19.00
2022-10-05T09:54:27.916Z,19.10
2022-10-05T09:57:31.925Z,19.20
2022-10-05T10:00:16.995Z,19.40
2022-10-05T10:03:08.376Z,19.00
2022-10-05T10:06:06.950Z,19.00
2022-10-05T10:09:20.682Z,19.20
2022-10-05T10:12:16.427Z,19.40
2022-10-05T10:15:32.720Z,19.50
2022-10-05T10:18:43.437Z,19.40
2022-10-05T10:21:45.900Z,19.40
2022-10-05T10:24:22.449Z,19.30
2022-10-05T10:27:30.620Z,19.40
2022-10-05T10:30:22.478Z,19.30
2022-10-05T10:33:29.701Z,19.30
2022-10-05T10:36:23.744Z,19.30
2022-10-05T10:39:25.904Z,19.50
2022-10-05T10:42:33.561Z,19.60
2022-10-05T10:45:17.886Z,19.50
2022-10-05T10:47:48.780Z,19.60
2022-10-05T10:50:36.792Z,19.60
2022-10-05T10:54:04.276Z,19.30
2022-10-05T10:56:53.011Z,19.30
2022-10-05T11:00:00.276Z,19.30
2022-10-05T11:03:08.903Z,19.30
2022-10-05T11:06:14.186Z,19.60
2022-10-05T11:09:18.006Z,19.70
2022-10-05T11:12:21.713Z,19.70
2022-10-05T11:15:28.856Z,19.80
2022-10-05T11:21:14.675Z,20.00
2022-10-05T11:24:22.845Z,20.00
2022-10-05T11:27:11.420Z,20.00
2022-10-05T11:30:03.591Z,20.00
2022-10-05T11:33:11.711Z,19.90
2022-10-05T11:36:20.460Z,19.70
2022-10-05T11:39:13.557Z,19.90
2022-10-05T11:41:59.414Z,20.00
2022-10-05T11:48:11.611Z,20.30
2022-10-05T11:51:11.219Z,20.10
2022-10-05T11:55:06.071Z,20.30
2022-10-05T11:57:57.275Z,20.40
2022-10-05T12:00:33.871Z,20.50
2022-10-05T12:03:45.939Z,20.60
2022-10-05T12:06:51.447Z,20.60
2022-10-05T12:10:07.442Z,20.60
2022-10-05T12:13:02.487Z,20.60
2022-10-05T12:16:13.334Z,20.60
2022-10-05T12:18:52.495Z,20.60
2022-10-05T12:21:41.577Z,20.60
2022-10-05T12:24:29.312Z,20.60
2022-10-05T12:27:03.730Z,20.20
2022-10-05T12:29:54.655Z,19.80
2022-10-05T12:33:19.725Z,19.00
2022-10-05T12:36:24.711Z,18.30
2022-10-05T12:38:57.031Z,18.00
2022-10-05T12:41:51.901Z,18.40
2022-10-05T12:44:57.739Z,18.80
2022-10-05T12:47:53.947Z,19.20
2022-10-05T12:50:58.535Z,19.60
2022-10-05T12:53:59.859Z,19.80
2022-10-05T12:56:56.411Z,20.00
2022-10-05T12:59:44.335Z,20.10
2022-10-05T13:02:31.162Z,19.90
2022-10-05T13:05:19.050Z,19.90
2022-10-05T13:08:21.161Z,19.90
2022-10-05T13:11:04.606Z,19.80
2022-10-05T13:14:30.747Z,19.70
2022-10-05T13:17:20.166Z,19.80
2022-10-05T13:20:14.015Z,19.80
2022-10-05T13:22:57.447Z,19.80
2022-10-05T13:25:32.871Z,19.90
2022-10-05T13:28:11.007Z,19.80
2022-10-05T13:30:42.231Z,19.60
2022-10-05T13:33:36.349Z,19.60
2022-10-05T13:36:18.052Z,19.40
2022-10-05T13:39:28.177Z,19.10
2022-10-05T13:42:13.527Z,18.80
2022-10-05T13:45:27.597Z,18.60
2022-10-05T13:48:43.961Z,18.60
2022-10-05T13:51:54.176Z,18.50
2022-10-05T13:54:32.360Z,18.60
2022-10-05T13:57:48.071Z,18.80
2022-10-05T14:00:43.982Z,18.70
2022-10-05T14:04:18.235Z,18.70
2022-10-05T14:06:58.267Z,18.50
2022-10-05T14:09:36.701Z,18.50
2022-10-05T14:12:13.715Z,18.60
2022-10-05T14:15:01.113Z,18.70
2022-10-05T14:17:33.926Z,18.80
2022-10-05T14:20:28.934Z,18.90
2022-10-05T14:23:25.010Z,18.80
2022-10-05T14:25:55.141Z,18.90
2022-10-05T14:28:37.322Z,18.80
2022-10-05T14:31:17.676Z,18.60
2022-10-05T14:33:56.091Z,18.70
2022-10-05T14:36:55.766Z,18.70
2022-10-05T14:39:29.491Z,18.60
2022-10-05T14:42:12.986Z,18.50
2022-10-05T14:44:43.405Z,18.40
2022-10-05T14:47:27.695Z,18.20
2022-10-05T14:50:33.734Z,18.20
2022-10-05T14:53:22.607Z,18.10
2022-10-05T14:56:38.536Z,18.10
2022-10-05T14:59:31.050Z,18.20
2022-10-05T15:02:40.473Z,18.20
2022-10-05T15:05:51.649Z,18.20
2022-10-05T15:08:48.202Z,18.10
2022-10-05T15:11:41.411Z,18.10
2022-10-05T15:14:30.045Z,18.00
2022-10-05T15:17:15.225Z,18.00
2022-10-05T15:20:18.163Z,18.00
2022-10-05T15:23:15.466Z,18.00
2022-10-05T15:26:13.856Z,18.00
2022-10-05T15:29:20.960Z,17.90
2022-10-05T15:32:17.735Z,17.70
2022-10-05T15:35:36.515Z,17.60
2022-10-05T15:38:26.811Z,17.40
2022-10-05T15:41:20.233Z,17.30
2022-10-05T15:44:11.250Z,17.30
2022-10-05T15:46:50.425Z,17.20
2022-10-05T15:49:38.555Z,17.10
2022-10-05T15:52:40.214Z,17.10
2022-10-05T15:55:36.525Z,17.00
2022-10-05T15:58:44.599Z,17.00
2022-10-05T16:01:33.576Z,17.00
2022-10-05T16:04:37.400Z,16.90
2022-10-05T16:07:38.616Z,16.80
2022-10-05T16:10:27.846Z,16.60
2022-10-05T16:13:39.252Z,16.50
2022-10-05T16:16:36.419Z,16.50
2022-10-05T16:19:48.792Z,16.40
2022-10-05T16:22:55.741Z,16.40
2022-10-05T16:25:44.765Z,16.20
2022-10-05T16:28:53.168Z,16.10
2022-10-05T16:31:34.075Z,16.00
2022-10-05T16:34:53.255Z,15.90
2022-10-05T16:38:07.501Z,15.90
2022-10-05T16:41:14.005Z,15.80
2022-10-05T16:43:57.690Z,15.70
2022-10-05T16:46:57.925Z,15.60
2022-10-05T16:49:55.621Z,15.50
2022-10-05T16:52:28.566Z,15.50
2022-10-05T16:55:03.410Z,15.50
2022-10-05T16:57:47.191Z,15.40
2022-10-05T17:01:06.307Z,15.30
2022-10-05T17:04:15.979Z,15.30
2022-10-05T17:07:11.865Z,15.20
2022-10-05T17:10:17.947Z,15.20
2022-10-05T17:13:30.091Z,15.10
2022-10-05T17:16:22.340Z,15.10
2022-10-05T17:19:31.289Z,15.00
2022-10-05T17:22:34.685Z,15.00
2022-10-05T17:25:22.685Z,15.00
2022-10-05T17:28:27.896Z,15.00
2022-10-05T17:31:24.116Z,14.90
2022-10-05T17:34:15.205Z,14.90
2022-10-05T17:36:57.880Z,14.80
2022-10-05T17:39:51.265Z,14.80
2022-10-05T17:42:35.027Z,14.70
2022-10-05T17:45:23.162Z,14.70
2022-10-05T17:48:05.416Z,14.70
2022-10-05T17:51:11.285Z,14.60
2022-10-05T17:54:11.281Z,14.50
2022-10-05T17:57:06.416Z,14.50
2022-10-05T18:00:14.050Z,14.40
2022-10-05T18:02:43.165Z,14.40
2022-10-05T18:05:16.354Z,14.30
2022-10-05T18:08:08.201Z,14.30
2022-10-05T18:10:41.248Z,14.30
2022-10-05T18:13:47.733Z,14.20
2022-10-05T18:16:57.710Z,14.20
2022-10-05T18:19:30.310Z,14.20
2022-10-05T18:22:17.605Z,14.20
2022-10-05T18:25:33.001Z,14.20
2022-10-05T18:28:40.422Z,14.20
2022-10-05T18:31:38.871Z,14.20
2022-10-05T18:34:39.036Z,14.20
2022-10-05T18:37:35.225Z,14.20
2022-10-05T18:40:44.375Z,14.20
2022-10-05T18:43:36.665Z,14.20
2022-10-05T18:46:25.872Z,14.20
2022-10-05T18:49:37.887Z,14.20
2022-10-05T18:52:32.814Z,14.20
2022-10-05T18:55:32.966Z,14.20
2022-10-05T18:58:37.429Z,14.20
2022-10-05T19:01:30.709Z,14.20
2022-10-05T19:04:50.169Z,14.20
2022-10-05T19:07:59.213Z,14.20
2022-10-05T19:10:48.126Z,14.20
2022-10-05T19:13:37.460Z,14.20
2022-10-05T19:16:35.991Z,14.30
2022-10-05T19:19:33.809Z,14.20
2022-10-05T19:22:47.151Z,14.10
2022-10-05T19:25:40.920Z,14.00
2022-10-05T19:28:35.966Z,13.90
2022-10-05T19:31:38.533Z,13.90
2022-10-05T19:34:43.415Z,13.80
2022-10-05T19:37:50.378Z,13.70
2022-10-05T19:41:09.481Z,13.60
2022-10-05T19:44:14.060Z,13.50
2022-10-05T19:47:09.481Z,13.50
2022-10-05T19:49:56.568Z,13.40
2022-10-05T19:52:41.471Z,13.50
2022-10-05T19:55:24.369Z,13.50
2022-10-05T19:57:56.006Z,13.50
2022-10-05T20:00:39.961Z,13.50
2022-10-05T20:03:30.185Z,13.40
2022-10-05T20:06:15.187Z,13.40
2022-10-05T20:08:48.467Z,13.30
2022-10-05T20:11:36.596Z,13.30
2022-10-05T20:14:15.290Z,13.30
2022-10-05T20:17:01.870Z,13.30
2022-10-05T20:19:47.649Z,13.30
2022-10-05T20:22:40.000Z,13.30
2022-10-05T20:25:32.492Z,13.40
2022-10-05T20:27:59.802Z,13.40
2022-10-05T20:30:36.770Z,13.40
2022-10-05T20:33:13.489Z,13.30
2022-10-05T20:35:45.730Z,13.40
2022-10-05T20:38:15.486Z,13.30
2022-10-05T20:40:43.661Z,13.30
2022-10-05T20:43:13.871Z,13.30
2022-10-05T20:45:44.113Z,13.30
2022-10-05T20:48:16.910Z,13.20
2022-10-05T20:50:43.900Z,13.20
2022-10-05T20:53:13.765Z,13.30
2022-10-05T20:55:41.368Z,13.20
2022-10-05T20:58:18.889Z,13.20
2022-10-05T21:01:07.498Z,13.10
2022-10-05T21:03:38.582Z,13.10
2022-10-05T21:06:15.788Z,13.10
2022-10-05T21:08:50.315Z,13.00
2022-10-05T21:11:18.485Z,12.90
2022-10-05T21:13:47.186Z,13.00
2022-10-05T21:16:19.073Z,13.00
2022-10-05T21:18:56.466Z,13.00
2022-10-05T21:21:35.177Z,13.00
2022-10-05T21:24:05.056Z,13.00
2022-10-05T21:26:34.281Z,13.00
2022-10-05T21:29:07.798Z,12.90
2022-10-05T21:31:49.822Z,12.90
2022-10-05T21:34:21.261Z,12.90
2022-10-05T21:36:50.722Z,12.80
2022-10-05T21:39:20.521Z,12.80
2022-10-05T21:41:49.781Z,12.60
2022-10-05T21:44:19.480Z,12.60
2022-10-05T21:46:52.782Z,12.50
2022-10-05T21:49:20.276Z,12.50
2022-10-05T21:51:48.887Z,12.40
2022-10-05T21:54:20.766Z,12.40
2022-10-05T21:57:05.454Z,12.30
2022-10-05T21:59:36.671Z,12.30
2022-10-05T22:02:13.734Z,12.30
2022-10-05T22:04:43.050Z,12.20
2022-10-05T22:07:19.712Z,12.20
2022-10-05T22:09:52.094Z,12.20
2022-10-05T22:12:22.007Z,12.20
2022-10-05T22:14:50.375Z,12.20
2022-10-05T22:17:26.195Z,12.10
2022-10-05T22:19:57.015Z,12.00
2022-10-05T22:22:28.513Z,11.90
2022-10-05T22:25:04.716Z,11.90
2022-10-05T22:27:37.505Z,11.80
2022-10-05T22:30:09.946Z,11.70
2022-10-05T22:32:39.305Z,11.70
2022-10-05T22:35:11.504Z,11.70
2022-10-05T22:37:39.471Z,11.70
2022-10-05T22:40:08.952Z,11.70
2022-10-05T22:42:41.661Z,11.60
2022-10-05T22:45:10.127Z,11.60
2022-10-05T22:47:47.247Z,11.60
2022-10-05T22:50:16.044Z,11.70
2022-10-05T22:52:45.321Z,11.70
2022-10-05T22:55:21.546Z,11.80
2022-10-05T22:57:50.170Z,11.80
2022-10-05T23:00:17.960Z,11.80
2022-10-05T23:02:50.725Z,11.80
2022-10-05T23:05:19.307Z,11.70
2022-10-05T23:07:49.205Z,11.70
2022-10-05T23:10:19.641Z,11.60
2022-10-05T23:13:01.200Z,11.60
2022-10-05T23:15:30.310Z,11.60
2022-10-05T23:18:08.695Z,11.50
2022-10-05T23:20:40.465Z,11.50
2022-10-05T23:23:10.932Z,11.50
2022-10-05T23:25:39.134Z,11.50
2022-10-05T23:28:10.166Z,11.40
2022-10-05T23:30:40.724Z,11.40
2022-10-05T23:33:10.575Z,11.40
2022-10-05T23:35:41.296Z,11.40
2022-10-05T23:38:10.605Z,11.30
2022-10-05T23:40:38.769Z,11.30
2022-10-05T23:43:16.837Z,11.30
2022-10-05T23:45:51.243Z,11.40
2022-10-05T23:48:30.788Z,11.40
2022-10-05T23:51:00.869Z,11.40
2022-10-05T23:53:39.241Z,11.30
2022-10-05T23:56:07.815Z,11.20
2022-10-05T23:58:36.215Z,11.20
